createdAt,value
2019-03-03T00:00:50.313Z,75.00
2019-03-03T00:03:18.309Z,74.80
2019-03-03T00:05:46.297Z,74.80
2019-03-03T00:08:14.165Z,75.20
2019-03-03T00:10:42.294Z,74.70
2019-03-03T00:13:10.079Z,74.20
2019-03-03T00:15:37.823Z,73.20
2019-03-03T00:18:05.659Z,72.90
2019-03-03T00:20:33.424Z,71.40
2019-03-03T00:23:01.253Z,72.10
2019-03-03T00:25:29.087Z,71.60
2019-03-03T00:27:56.881Z,71.50
2019-03-03T00:30:24.836Z,71.50
2019-03-03T00:32:52.588Z,70.80
2019-03-03T00:35:20.418Z,71.50
2019-03-03T00:38:26.343Z,72.10
2019-03-03T00:41:22.769Z,71.30
2019-03-03T00:44:10.173Z,71.30
2019-03-03T00:46:54.522Z,71.10
2019-03-03T00:49:31.581Z,71.10
2019-03-03T00:52:10.344Z,71.90
2019-03-03T00:54:57.117Z,71.70
2019-03-03T00:57:37.416Z,71.80
2019-03-03T01:00:27.888Z,71.20
2019-03-03T01:03:03.435Z,71.20
2019-03-03T01:05:38.862Z,71.20
2019-03-03T01:08:44.758Z,71.10
2019-03-03T01:11:35.419Z,70.90
2019-03-03T01:14:10.484Z,72.30
2019-03-03T01:16:56.311Z,71.10
2019-03-03T01:19:42.424Z,71.90
2019-03-03T01:22:18.569Z,71.20
2019-03-03T01:25:03.877Z,71.40
2019-03-03T01:27:31.742Z,71.20
2019-03-03T01:30:11.913Z,71.40
2019-03-03T01:32:39.825Z,71.00
2019-03-03T01:35:08.344Z,71.20
2019-03-03T01:37:36.156Z,71.60
2019-03-03T01:40:06.174Z,71.90
2019-03-03T01:42:34.230Z,72.40
2019-03-03T01:45:02.077Z,72.10
2019-03-03T01:47:29.883Z,72.00
2019-03-03T01:49:57.672Z,72.10
2019-03-03T01:52:25.599Z,72.30
2019-03-03T01:54:53.414Z,72.00
2019-03-03T01:57:21.273Z,72.70
2019-03-03T01:59:49.085Z,72.40
2019-03-03T02:02:16.889Z,72.70
2019-03-03T02:04:44.720Z,73.10
2019-03-03T02:07:12.491Z,72.90
2019-03-03T02:09:40.434Z,73.20
2019-03-03T02:12:08.253Z,73.00
2019-03-03T02:14:36.133Z,73.30
2019-03-03T02:17:05.131Z,72.60
2019-03-03T02:19:33.299Z,72.00
2019-03-03T02:22:01.231Z,71.80
2019-03-03T02:24:29.100Z,71.30
2019-03-03T02:26:57.478Z,71.30
2019-03-03T02:29:25.256Z,71.30
2019-03-03T02:31:53.094Z,71.30
2019-03-03T02:34:20.960Z,71.00
2019-03-03T02:36:49.171Z,70.80
2019-03-03T02:39:18.807Z,70.80
2019-03-03T02:41:46.678Z,70.60
2019-03-03T02:44:15.261Z,70.30
2019-03-03T02:46:43.068Z,70.00
2019-03-03T02:49:10.837Z,69.90
2019-03-03T02:51:38.712Z,70.40
2019-03-03T02:54:06.482Z,69.50
2019-03-03T02:56:34.271Z,69.20
2019-03-03T02:59:02.113Z,69.20
2019-03-03T03:01:37.591Z,69.30
2019-03-03T03:04:05.962Z,69.20
2019-03-03T03:06:53.381Z,68.70
2019-03-03T03:09:30.543Z,69.40
2019-03-03T03:12:10.030Z,69.20
2019-03-03T03:14:57.443Z,69.40
2019-03-03T03:17:53.875Z,69.20
2019-03-03T03:20:38.406Z,69.60
2019-03-03T03:23:17.011Z,69.70
2019-03-03T03:26:03.328Z,69.70
2019-03-03T03:28:38.969Z,70.90
2019-03-03T03:31:22.379Z,70.80
2019-03-03T03:34:14.395Z,70.80
2019-03-03T03:37:01.786Z,70.50
2019-03-03T03:39:55.448Z,70.10
2019-03-03T03:42:28.611Z,70.90
2019-03-03T03:45:14.484Z,70.90
2019-03-03T03:47:53.848Z,70.90
2019-03-03T03:50:36.768Z,70.70
2019-03-03T03:53:11.805Z,70.00
2019-03-03T03:56:02.639Z,69.90
2019-03-03T03:58:47.894Z,69.90
2019-03-03T04:02:06.218Z,69.70
2019-03-03T04:04:52.619Z,69.20
2019-03-03T04:07:38.284Z,69.50
2019-03-03T04:10:26.066Z,69.40
2019-03-03T04:13:19.627Z,69.00
2019-03-03T04:15:57.213Z,68.90
2019-03-03T04:18:31.309Z,69.20
2019-03-03T04:21:21.627Z,69.20
2019-03-03T04:24:07.731Z,69.50
2019-03-03T04:27:10.199Z,69.30
2019-03-03T04:30:06.160Z,69.30
2019-03-03T04:32:47.006Z,69.20
2019-03-03T04:35:23.056Z,69.10
2019-03-03T04:37:59.954Z,69.00
2019-03-03T04:40:53.317Z,69.10
2019-03-03T04:43:40.807Z,69.20
2019-03-03T04:46:16.245Z,69.40
2019-03-03T04:48:53.742Z,69.30
2019-03-03T04:51:39.444Z,69.60
2019-03-03T04:54:46.076Z,69.80
2019-03-03T04:57:31.964Z,70.00
2019-03-03T05:00:31.693Z,70.10
2019-03-03T05:03:25.116Z,70.40
2019-03-03T05:06:11.146Z,70.00
2019-03-03T05:08:47.531Z,70.70
2019-03-03T05:12:37.960Z,71.10
2019-03-03T05:15:48.754Z,71.10
2019-03-03T05:18:36.172Z,71.10
2019-03-03T05:21:04.018Z,71.10
2019-03-03T05:23:31.801Z,71.10
2019-03-03T05:25:59.496Z,71.40
2019-03-03T05:28:27.295Z,71.10
2019-03-03T05:30:55.094Z,71.10
2019-03-03T05:33:23.219Z,71.10
2019-03-03T05:35:50.998Z,71.10
2019-03-03T05:38:18.831Z,71.20
2019-03-03T05:40:46.615Z,71.20
2019-03-03T05:43:14.421Z,71.10
2019-03-03T05:45:42.200Z,71.20
2019-03-03T05:48:10.046Z,71.10
2019-03-03T05:50:37.828Z,71.20
2019-03-03T05:53:20.717Z,71.20
2019-03-03T05:55:48.525Z,71.20
2019-03-03T05:58:16.339Z,71.40
2019-03-03T06:00:44.102Z,71.30
2019-03-03T06:03:12.075Z,71.20
2019-03-03T06:05:39.855Z,71.20
2019-03-03T06:08:07.658Z,71.30
2019-03-03T06:10:35.501Z,71.20
2019-03-03T06:13:03.470Z,71.20
2019-03-03T06:15:31.269Z,71.20
2019-03-03T06:17:59.070Z,71.10
2019-03-03T06:20:27.900Z,71.20
2019-03-03T06:22:56.077Z,71.20
2019-03-03T06:25:23.909Z,71.60
2019-03-03T06:27:51.704Z,71.20
2019-03-03T06:30:19.468Z,70.60
2019-03-03T06:32:47.431Z,70.20
2019-03-03T06:35:15.226Z,70.40
2019-03-03T06:37:43.054Z,69.20
2019-03-03T06:40:10.847Z,69.30
2019-03-03T06:42:38.754Z,68.80
2019-03-03T06:45:08.336Z,68.80
2019-03-03T06:47:36.199Z,68.60
2019-03-03T06:50:06.384Z,68.50
2019-03-03T06:52:34.459Z,68.80
2019-03-03T06:55:02.237Z,68.50
2019-03-03T06:57:30.063Z,68.70
2019-03-03T06:59:57.851Z,67.90
2019-03-03T07:02:25.646Z,67.60
2019-03-03T07:04:53.503Z,65.90
2019-03-03T07:07:21.298Z,65.30
2019-03-03T07:09:49.116Z,65.10
2019-03-03T07:12:16.970Z,65.10
2019-03-03T07:14:44.785Z,65.10
2019-03-03T07:17:12.597Z,65.00
2019-03-03T07:19:40.374Z,65.00
2019-03-03T07:22:08.175Z,65.10
2019-03-03T07:24:36.023Z,65.10
2019-03-03T07:27:03.872Z,65.00
2019-03-03T07:29:31.653Z,65.20
2019-03-03T07:31:59.419Z,65.10
2019-03-03T07:34:27.246Z,65.10
2019-03-03T07:36:55.043Z,65.10
2019-03-03T07:39:22.810Z,65.40
2019-03-03T07:41:50.636Z,65.60
2019-03-03T07:44:23.673Z,65.80
2019-03-03T07:46:51.499Z,65.50
2019-03-03T07:49:19.320Z,65.10
2019-03-03T07:51:47.461Z,65.20
2019-03-03T07:54:15.337Z,65.20
2019-03-03T07:56:45.871Z,65.20
2019-03-03T07:59:13.667Z,65.30
2019-03-03T08:01:41.517Z,64.70
2019-03-03T08:04:14.392Z,64.90
2019-03-03T08:06:42.224Z,65.00
2019-03-03T08:09:10.205Z,64.40
2019-03-03T08:11:37.960Z,64.30
2019-03-03T08:14:21.826Z,65.40
2019-03-03T08:16:49.631Z,64.10
2019-03-03T08:19:17.488Z,63.90
2019-03-03T08:21:45.412Z,63.70
2019-03-03T08:24:13.248Z,63.50
2019-03-03T08:26:41.013Z,63.20
2019-03-03T08:29:08.837Z,63.70
2019-03-03T08:31:36.642Z,63.10
2019-03-03T08:34:04.477Z,63.30
2019-03-03T08:36:33.495Z,63.00
2019-03-03T08:39:01.300Z,62.60
2019-03-03T08:41:29.967Z,62.50
2019-03-03T08:44:10.508Z,62.20
2019-03-03T08:47:06.715Z,60.80
2019-03-03T08:49:53.022Z,60.70
2019-03-03T08:52:31.511Z,60.60
2019-03-03T08:55:17.595Z,61.20
2019-03-03T08:57:54.493Z,61.20
2019-03-03T09:03:46.196Z,61.00
2019-03-03T09:06:26.452Z,60.10
2019-03-03T09:09:19.734Z,60.20
2019-03-03T09:12:05.725Z,60.10
2019-03-03T09:14:53.126Z,60.20
2019-03-03T09:17:55.744Z,60.40
2019-03-03T09:20:29.501Z,60.20
2019-03-03T09:23:22.188Z,60.30
2019-03-03T09:26:15.465Z,60.20
2019-03-03T09:28:54.516Z,60.50
2019-03-03T09:31:40.666Z,60.50
2019-03-03T09:34:31.051Z,60.50
2019-03-03T09:37:36.582Z,60.50
2019-03-03T09:40:23.953Z,60.50
2019-03-03T09:43:04.883Z,59.30
2019-03-03T09:45:42.147Z,59.30
2019-03-03T09:48:38.646Z,58.20
2019-03-03T09:51:16.430Z,57.80
2019-03-03T09:53:52.550Z,56.50
2019-03-03T09:56:39.962Z,55.50
2019-03-03T09:59:42.133Z,54.00
2019-03-03T10:02:27.669Z,53.60
2019-03-03T10:05:30.089Z,52.70
2019-03-03T10:08:17.749Z,52.90
2019-03-03T10:11:02.963Z,51.80
2019-03-03T10:13:43.640Z,52.80
2019-03-03T10:16:27.514Z,53.50
2019-03-03T10:19:11.554Z,52.90
2019-03-03T10:21:59.001Z,52.20
2019-03-03T10:24:44.150Z,52.40
2019-03-03T10:27:19.433Z,53.30
2019-03-03T10:30:05.406Z,52.00
2019-03-03T10:32:53.099Z,51.90
2019-03-03T10:35:28.273Z,51.80
2019-03-03T10:38:21.420Z,51.80
2019-03-03T10:40:59.349Z,52.10
2019-03-03T10:43:33.486Z,52.10
2019-03-03T10:46:19.464Z,52.40
2019-03-03T10:49:06.873Z,50.10
2019-03-03T10:52:00.259Z,49.60
2019-03-03T10:54:50.737Z,49.90
2019-03-03T10:57:41.068Z,49.30
2019-03-03T11:00:30.064Z,49.00
2019-03-03T11:03:17.631Z,47.90
2019-03-03T11:06:11.001Z,48.70
2019-03-03T11:08:59.796Z,46.90
2019-03-03T11:11:49.976Z,47.40
2019-03-03T11:14:37.535Z,47.90
2019-03-03T11:17:24.934Z,47.60
2019-03-03T11:20:00.346Z,47.50
2019-03-03T11:22:46.678Z,48.40
2019-03-03T11:25:43.216Z,48.30
2019-03-03T11:28:42.571Z,48.80
2019-03-03T11:31:32.991Z,49.20
2019-03-03T11:34:32.724Z,49.90
2019-03-03T11:37:15.586Z,49.90
2019-03-03T11:39:49.987Z,50.70
2019-03-03T11:42:35.911Z,51.00
2019-03-03T11:45:20.812Z,51.80
2019-03-03T11:48:04.071Z,51.90
2019-03-03T11:50:38.890Z,51.70
2019-03-03T11:53:20.376Z,52.30
2019-03-03T11:55:57.957Z,51.70
2019-03-03T11:58:48.486Z,51.80
2019-03-03T12:01:29.245Z,51.90
2019-03-03T12:04:12.851Z,52.60
2019-03-03T12:06:53.557Z,53.10
2019-03-03T12:09:35.977Z,53.20
2019-03-03T12:12:14.022Z,53.30
2019-03-03T12:14:55.187Z,53.40
2019-03-03T12:17:29.433Z,53.10
2019-03-03T12:20:15.405Z,53.10
2019-03-03T12:23:01.913Z,53.30
2019-03-03T12:25:45.680Z,52.80
2019-03-03T12:28:38.189Z,52.50
2019-03-03T12:31:23.007Z,53.00
2019-03-03T12:33:58.498Z,53.50
2019-03-03T12:36:55.159Z,53.70
2019-03-03T12:39:29.753Z,53.30
2019-03-03T12:42:20.219Z,53.40
2019-03-03T12:45:02.219Z,53.50
2019-03-03T12:47:53.362Z,53.80
2019-03-03T12:50:49.520Z,53.50
2019-03-03T12:53:30.007Z,53.70
2019-03-03T12:56:05.715Z,53.30
2019-03-03T12:58:51.716Z,53.20
2019-03-03T13:01:38.000Z,53.10
2019-03-03T13:04:41.130Z,53.10
2019-03-03T13:07:28.592Z,52.50
2019-03-03T13:10:34.164Z,51.70
2019-03-03T13:13:36.622Z,52.00
2019-03-03T13:16:33.271Z,51.90
2019-03-03T13:19:14.678Z,52.00
2019-03-03T13:22:12.265Z,51.40
2019-03-03T13:25:05.320Z,51.80
2019-03-03T13:27:52.797Z,51.80
2019-03-03T13:30:32.530Z,51.80
2019-03-03T13:33:26.369Z,52.00
2019-03-03T13:36:12.595Z,51.70
2019-03-03T13:38:50.741Z,51.70
2019-03-03T13:41:41.424Z,52.50
2019-03-03T13:44:09.342Z,52.20
2019-03-03T13:46:37.187Z,52.50
2019-03-03T13:49:05.119Z,52.70
2019-03-03T13:51:32.930Z,53.00
2019-03-03T13:54:00.833Z,53.30
2019-03-03T13:56:28.688Z,52.90
2019-03-03T13:58:56.497Z,52.60
2019-03-03T14:01:24.514Z,53.40
2019-03-03T14:03:52.331Z,53.10
2019-03-03T14:06:20.280Z,53.60
2019-03-03T14:08:48.058Z,53.20
2019-03-03T14:11:25.884Z,53.80
2019-03-03T14:13:53.987Z,54.10
2019-03-03T14:16:21.857Z,54.10
2019-03-03T14:18:49.659Z,54.10
2019-03-03T14:21:17.496Z,54.10
2019-03-03T14:23:45.291Z,53.80
2019-03-03T14:26:13.200Z,53.10
2019-03-03T14:28:41.065Z,53.50
2019-03-03T14:31:08.995Z,53.40
2019-03-03T14:33:41.799Z,54.00
2019-03-03T14:36:09.644Z,53.60
2019-03-03T14:38:37.445Z,53.70
2019-03-03T14:41:05.876Z,53.80
2019-03-03T14:43:33.722Z,53.70
2019-03-03T14:46:01.541Z,53.70
2019-03-03T14:48:29.406Z,53.60
2019-03-03T14:50:57.233Z,53.70
2019-03-03T14:53:35.354Z,53.40
2019-03-03T14:56:03.241Z,53.30
2019-03-03T14:58:32.377Z,53.40
2019-03-03T15:01:00.200Z,53.90
2019-03-03T15:03:28.056Z,53.90
2019-03-03T15:05:55.845Z,54.00
2019-03-03T15:08:23.656Z,54.40
2019-03-03T15:10:51.472Z,54.30
2019-03-03T15:13:19.242Z,54.30
2019-03-03T15:15:47.116Z,54.60
2019-03-03T15:18:14.986Z,54.70
2019-03-03T15:20:42.947Z,54.40
2019-03-03T15:23:11.109Z,54.60
2019-03-03T15:25:38.911Z,54.70
2019-03-03T15:28:06.900Z,54.80
2019-03-03T15:30:34.694Z,54.70
2019-03-03T15:33:02.567Z,55.20
2019-03-03T15:35:30.409Z,55.00
2019-03-03T15:37:58.284Z,55.00
2019-03-03T15:40:26.285Z,55.40
2019-03-03T15:42:54.070Z,55.70
2019-03-03T15:45:21.975Z,55.50
2019-03-03T15:47:54.089Z,55.30
2019-03-03T15:50:23.965Z,55.50
2019-03-03T15:52:54.193Z,55.60
2019-03-03T15:55:22.839Z,56.20
2019-03-03T15:57:54.113Z,56.10
2019-03-03T16:00:25.579Z,56.20
2019-03-03T16:02:54.116Z,56.00
2019-03-03T16:05:24.050Z,56.30
2019-03-03T16:07:52.433Z,56.20
2019-03-03T16:10:22.071Z,56.10
2019-03-03T16:12:50.473Z,56.30
2019-03-03T16:15:19.056Z,56.20
2019-03-03T16:17:46.963Z,56.80
2019-03-03T16:20:17.072Z,56.80
2019-03-03T16:22:46.127Z,57.20
2019-03-03T16:25:15.010Z,57.00
2019-03-03T16:27:43.007Z,57.20
2019-03-03T16:30:14.193Z,58.00
2019-03-03T16:32:42.118Z,57.90
2019-03-03T16:35:10.809Z,57.90
2019-03-03T16:37:38.951Z,58.40
2019-03-03T16:40:10.110Z,58.40
2019-03-03T16:42:37.947Z,58.80
2019-03-03T16:45:06.840Z,59.20
2019-03-03T16:47:34.657Z,58.80
2019-03-03T16:50:02.494Z,58.70
2019-03-03T16:52:30.404Z,58.90
2019-03-03T16:54:58.283Z,59.10
2019-03-03T16:57:26.102Z,59.10
2019-03-03T16:59:53.954Z,59.10
2019-03-03T17:02:21.756Z,59.00
2019-03-03T17:04:49.670Z,59.10
2019-03-03T17:07:17.532Z,58.90
2019-03-03T17:09:45.363Z,59.20
2019-03-03T17:12:13.193Z,59.40
2019-03-03T17:14:41.170Z,59.30
2019-03-03T17:17:08.990Z,59.50
2019-03-03T17:19:36.868Z,59.60
2019-03-03T17:22:04.737Z,59.50
2019-03-03T17:24:32.545Z,59.50
2019-03-03T17:27:00.388Z,59.30
2019-03-03T17:29:28.299Z,59.30
2019-03-03T17:31:56.120Z,59.60
2019-03-03T17:34:45.277Z,59.60
2019-03-03T17:37:15.998Z,60.00
2019-03-03T17:39:43.831Z,60.00
2019-03-03T17:42:11.851Z,60.00
2019-03-03T17:44:39.716Z,60.60
2019-03-03T17:47:07.539Z,60.80
2019-03-03T17:49:35.471Z,60.70
2019-03-03T17:52:03.334Z,60.80
2019-03-03T17:54:36.446Z,60.80
2019-03-03T17:57:04.616Z,60.80
2019-03-03T17:59:32.472Z,60.80
2019-03-03T18:02:00.271Z,60.60
2019-03-03T18:04:28.185Z,60.50
2019-03-03T18:06:56.033Z,60.10
2019-03-03T18:09:23.904Z,59.70
2019-03-03T18:11:51.710Z,59.90
2019-03-03T18:14:19.560Z,59.60
2019-03-03T18:16:47.388Z,59.20
2019-03-03T18:19:15.216Z,59.20
2019-03-03T18:21:43.036Z,58.80
2019-03-03T18:24:30.302Z,58.80
2019-03-03T18:26:58.139Z,58.70
2019-03-03T18:29:25.954Z,58.90
2019-03-03T18:31:53.869Z,58.60
2019-03-03T18:34:21.657Z,58.50
2019-03-03T18:36:55.023Z,58.50
2019-03-03T18:39:23.956Z,58.40
2019-03-03T18:41:52.281Z,58.50
2019-03-03T18:44:21.151Z,58.20
2019-03-03T18:46:50.281Z,58.40
2019-03-03T18:49:21.895Z,58.50
2019-03-03T18:51:55.337Z,58.20
2019-03-03T18:54:24.336Z,58.30
2019-03-03T18:56:52.180Z,58.20
2019-03-03T18:59:20.013Z,58.20
2019-03-03T19:01:49.554Z,58.40
2019-03-03T19:04:34.175Z,58.50
2019-03-03T19:07:02.643Z,58.20
2019-03-03T19:09:30.508Z,58.20
2019-03-03T19:11:58.554Z,58.10
2019-03-03T19:14:28.597Z,58.10
2019-03-03T19:16:56.155Z,58.00
2019-03-03T19:19:25.518Z,58.00
2019-03-03T19:21:53.404Z,58.10
2019-03-03T19:24:21.282Z,58.00
2019-03-03T19:26:49.207Z,58.20
2019-03-03T19:29:17.063Z,58.20
2019-03-03T19:31:44.983Z,58.00
2019-03-03T19:34:12.924Z,58.10
2019-03-03T19:36:40.763Z,58.20
2019-03-03T19:39:08.896Z,58.10
2019-03-03T19:41:36.830Z,58.10
2019-03-03T19:44:04.779Z,58.70
2019-03-03T19:46:32.733Z,58.00
2019-03-03T19:49:00.594Z,58.00
2019-03-03T19:51:28.549Z,57.90
2019-03-03T19:53:56.904Z,58.20
2019-03-03T19:56:24.963Z,58.00
2019-03-03T19:58:52.793Z,57.70
2019-03-03T20:01:20.695Z,57.90
2019-03-03T20:03:48.804Z,57.80
2019-03-03T20:06:16.746Z,57.40
2019-03-03T20:08:44.695Z,57.70
2019-03-03T20:11:12.506Z,57.50
2019-03-03T20:13:40.459Z,57.50
2019-03-03T20:16:08.375Z,57.60
2019-03-03T20:18:36.256Z,57.60
2019-03-03T20:21:04.101Z,57.40
2019-03-03T20:23:32.137Z,57.40
2019-03-03T20:25:59.989Z,57.40
2019-03-03T20:28:27.846Z,57.50
2019-03-03T20:30:55.870Z,57.50
2019-03-03T20:33:23.747Z,57.80
2019-03-03T20:35:51.508Z,59.80
2019-03-03T20:38:19.409Z,59.50
2019-03-03T20:40:47.281Z,60.80
2019-03-03T20:43:15.185Z,60.70
2019-03-03T20:45:43.005Z,60.90
2019-03-03T20:48:10.842Z,62.40
2019-03-03T20:50:38.737Z,64.50
2019-03-03T20:53:06.609Z,66.00
2019-03-03T20:55:39.425Z,66.00
2019-03-03T20:58:07.933Z,66.70
2019-03-03T21:00:36.798Z,67.20
2019-03-03T21:03:10.341Z,68.30
2019-03-03T21:05:38.121Z,66.40
2019-03-03T21:08:07.775Z,67.20
2019-03-03T21:10:38.005Z,67.70
2019-03-03T21:13:05.852Z,68.20
2019-03-03T21:15:33.651Z,68.80
2019-03-03T21:18:01.451Z,68.40
2019-03-03T21:20:29.232Z,68.20
2019-03-03T21:22:57.071Z,68.50
2019-03-03T21:25:29.176Z,67.60
2019-03-03T21:27:57.035Z,67.30
2019-03-03T21:30:24.891Z,67.30
2019-03-03T21:32:52.721Z,67.80
2019-03-03T21:35:20.687Z,68.40
2019-03-03T21:37:48.552Z,66.80
2019-03-03T21:40:17.534Z,66.40
2019-03-03T21:42:46.400Z,66.10
2019-03-03T21:45:16.467Z,66.50
2019-03-03T21:47:44.424Z,67.40
2019-03-03T21:50:15.691Z,65.80
2019-03-03T21:52:43.778Z,66.10
2019-03-03T21:55:11.892Z,64.60
2019-03-03T21:57:39.707Z,64.50
2019-03-03T22:00:28.635Z,64.30
2019-03-03T22:02:56.804Z,64.10
2019-03-03T22:05:26.560Z,63.80
2019-03-03T22:07:54.361Z,64.20
2019-03-03T22:10:32.232Z,64.60
2019-03-03T22:13:08.528Z,63.50
2019-03-03T22:15:36.331Z,63.10
2019-03-03T22:18:04.263Z,62.50
2019-03-03T22:20:32.089Z,64.10
2019-03-03T22:23:01.619Z,63.00
2019-03-03T22:25:30.263Z,63.10
2019-03-03T22:27:58.139Z,62.70
2019-03-03T22:30:26.046Z,63.10
2019-03-03T22:32:53.787Z,62.00
2019-03-03T22:35:21.647Z,62.20
2019-03-03T22:37:49.768Z,62.10
2019-03-03T22:40:17.586Z,63.80
2019-03-03T22:42:46.726Z,63.60
2019-03-03T22:45:14.548Z,62.30
2019-03-03T22:47:42.416Z,61.60
2019-03-03T22:50:11.125Z,62.80
2019-03-03T22:52:38.980Z,61.60
2019-03-03T22:55:08.025Z,62.60
2019-03-03T22:57:35.790Z,62.00
2019-03-03T23:00:23.562Z,61.70
2019-03-03T23:02:51.677Z,61.90
2019-03-03T23:05:28.824Z,61.60
2019-03-03T23:08:17.607Z,60.70
2019-03-03T23:11:25.826Z,61.00
2019-03-03T23:14:28.775Z,60.50
2019-03-03T23:17:43.206Z,60.60
2019-03-03T23:20:44.463Z,60.50
2019-03-03T23:24:03.323Z,60.50
2019-03-03T23:26:31.061Z,60.40
2019-03-03T23:29:00.985Z,61.50
2019-03-03T23:31:28.760Z,61.20
2019-03-03T23:33:56.857Z,61.40
2019-03-03T23:36:24.642Z,61.80
2019-03-03T23:38:52.401Z,62.40
2019-03-03T23:41:20.355Z,62.20
2019-03-03T23:43:48.404Z,62.60
2019-03-03T23:46:16.311Z,63.80
2019-03-03T23:48:44.125Z,64.50
2019-03-03T23:51:11.982Z,64.60
2019-03-03T23:53:39.909Z,65.80
2019-03-03T23:56:07.660Z,67.60
2019-03-03T23:58:35.481Z,66.00
